Buttonville, Canada
Current Conditions -  °F | °C
As of 1:00 AM on Thursday 23 Oct 2014 (Local Time) from CYKZ Reporting Station
Clear Clear  
Wind Chill: 45°   Ceiling: Unl
Heat Index: 45°   Visibility: 15mi
Dew Point: 41°   Wind: 3mph
Humidity: 87%   Direction: 340°NNW
Pressure: 30.21"   Gusts: NA
Location:  43.86°N, 79.36°W
Report Text: CYKZ 230500Z 34003KT 15SM SKC 07/05 A3021 RMK SLP234
Loading
Personal Weather Stations






























Interactive Weather Map
Tropical Storm Tracking
New forecast layout! Learn more

10-Day Weather Forecast

Advertisements
Track Severe Weather on mobile